LUNDI 2 DECEMBRE ; MARCHE NORDIQUE ; ROCHE LA MOLIERE
11 PP à Roche. Après 8 km, grosse averse et nous voilà à marcher encore plus vite pour rentrer tous mouillés aux voitures. CD
DIMANCHE 1er DECEMBRE ; MARCHE DES PIEDS PLATS
Les températures clémentes, le soleil, ont incité les randonneurs à venir se balader dans la vallée de Cotatay sur notre marche. 736 participants plus 2 chèvres qui ont suivi les marcheurs et pas de manque dans les ravitaillements. Bonne organisation malgré quelques couacs de balisage. CD
JEUDI 28 NOVEMBRE ; 2ème groupe ; LES VILLETTES
Malgré quelques averses annoncées les 10 PP ne se sont pas mouillés cet après midi au Villettes ; nous avons découvert un nouveau parcours, des chemins sablonneux sans boue et miracle un jeu de boules ouvert où nous avons pu boire le verre de l'amitié. GC
JEUDI 28 NOVEMBRE ; 1er groupe ; BALISAGE MARCHE DE 23 KM DES PIEDS PLATS
35 PP se sont retrouvés à la Pouratte pour baliser la marche de 23 km. Repas au restaurant le San Roumi , à Saint Romain les Atheux, où nous avons fêté comme il se doit l'anniversaire de Michel Barbier. CD
MERCREDI 27 NOVEMBRE ; MARCHE EPIS ; ROCHE LA MOLIERE
Balade d'une dizaine de km, le matin, autour des étangs de Roche. Pique-nique tiré du sac à l'amicale de Fraisses et petit tour dans le parc d'Unieux, l'après-midi. JLD
MARDI 26 NOVEMBRE ; ST GENEST LERPT
Quarante pieds plats à saint Genest Lerpt, avec un beau soleil. Nous avons pris un peu de retard à cause des bouchons ; heureusement la marche était facile et nous sommes revenus sans difficulté avant la nuit. Certains chemins étaient bien humides , de bonnes flaques à sauter mais pas d’arbres renversés. La mare aux fées était toujours aussi envoutante. Martine
LUNDI 25 NOVEMBRE ; MARCHE DOUCE ; BALISAGE DE LA PETITE MARCHE DES PP
Le vent souffle fort ; les baliseurs sont obligés de faire des doubles nœuds pour faire tenir la rubalise ou de mettre plusieurs agrafes mais bon la reconnaissance du parcours a pu se faire sans trop d'encombres.
LUNDI 25 NOVEMBRE ; MARCHE NORDIQUE ; ST GENEST MALIFAUX
9 PP ont fait le tour et quelques détours du barrage du Sapt à St Genest, accrochés à leurs bâtons pour ne pas se faire renverser par le vent. CD
VENDREDI 22 NOVEMBRE ; 23 ème AG DES PIEDS PLATS
110 participants à cette 23ème AG des PP. Un record !! Qui nous fait plaisir ! Elle a été suivie d'un apéritif dînatoire et d'une soirée dansante animée par Paul qui a reçu le trophée des PP pour son dévouement à l'animation. CD
/image%2F0724814%2F20241202%2Fob_3f5dcf_1.jpg)
/image%2F0724814%2F20241203%2Fob_c52e42_3.jpg)
/image%2F0724814%2F20241203%2Fob_07cda9_4.gif)
/image%2F0724814%2F20241203%2Fob_5f950a_5.jpg)
/image%2F0724814%2F20241203%2Fob_bb0bc1_6.jpg)
/image%2F0724814%2F20241203%2Fob_8cefe9_7.jpg)
/image%2F0724814%2F20241203%2Fob_21719f_8.jpg)
/image%2F0724814%2F20241203%2Fob_bb7f3d_9.jpg)
/image%2F0724814%2F20241203%2Fob_d96a73_10.jpg)
/image%2F0724814%2F20241203%2Fob_e8c2f1_13.jpg)
/image%2F0724814%2F20241203%2Fob_1320be_15.jpg)
/image%2F0724814%2F20241203%2Fob_c34de9_16.jpg)
/image%2F0724814%2F20241203%2Fob_8b4507_17.jpg)
/image%2F0724814%2F20241203%2Fob_348c3d_21.jpg)
/image%2F0724814%2F20241203%2Fob_9ea159_25.jpg)
/image%2F0724814%2F20241203%2Fob_652e15_26.jpg)
/image%2F0724814%2F20241203%2Fob_d03655_27.jpg)
/image%2F0724814%2F20241203%2Fob_7c5f52_28.jpg)
/image%2F0724814%2F20241203%2Fob_f91ae7_29.jpg)
/image%2F0724814%2F20241203%2Fob_569c7f_31.jpg)
/image%2F0724814%2F20241203%2Fob_b7a117_32.jpg)
/image%2F0724814%2F20241203%2Fob_7eb37a_34.jpg)
/image%2F0724814%2F20241202%2Fob_ab5018_img-20241202-151113-1.jpg)
/image%2F0724814%2F20241202%2Fob_0dd1d0_20241201-171655.jpg)
/image%2F0724814%2F20241202%2Fob_920f95_20241201-171652.jpg)
/image%2F0724814%2F20241202%2Fob_86e181_1733067137249.jpg)
/image%2F0724814%2F20241202%2Fob_9182fb_1733067137253.jpg)
/image%2F0724814%2F20241202%2Fob_1f8039_20241201-083123.jpg)
/image%2F0724814%2F20241202%2Fob_40857b_20241201-100728.jpg)
/image%2F0724814%2F20241202%2Fob_9cf57c_20241201-102246.jpg)
/image%2F0724814%2F20241202%2Fob_619d18_20241201-112023.jpg)
/image%2F0724814%2F20241202%2Fob_520624_20241201-112044.jpg)
/image%2F0724814%2F20241202%2Fob_2d46ab_20241201-112118.jpg)
/image%2F0724814%2F20241202%2Fob_71fec1_20241201-112601.jpg)
/image%2F0724814%2F20241202%2Fob_d77491_20241201-113700.jpg)
/image%2F0724814%2F20241202%2Fob_88ad98_20241201-124031.jpg)
/image%2F0724814%2F20241202%2Fob_419d17_20241201-140152.jpg)
/image%2F0724814%2F20241202%2Fob_d219c1_20241201-142221.jpg)
/image%2F0724814%2F20241202%2Fob_0af9c3_20241201-144307.jpg)
/image%2F0724814%2F20241202%2Fob_aa446c_20241201-154840.jpg)
/image%2F0724814%2F20241202%2Fob_ac57b8_20241201-154936.jpg)
/image%2F0724814%2F20241202%2Fob_e0400c_20241201-170131.jpg)
/image%2F0724814%2F20241202%2Fob_b7118d_20241201-073424.jpg)
/image%2F0724814%2F20241202%2Fob_d91af0_20241201-082504.jpg)
/image%2F0724814%2F20241202%2Fob_d50a9e_20241201-082548.jpg)
/image%2F0724814%2F20241202%2Fob_a8eab8_20241201-082609.jpg)
/image%2F0724814%2F20241202%2Fob_69e2b5_20241201-171618.jpg)
/image%2F0724814%2F20241202%2Fob_6f1b22_img-20241201-114610.jpg)
/image%2F0724814%2F20241202%2Fob_d62e08_img-20241201-114656.jpg)
/image%2F0724814%2F20241202%2Fob_5f2357_img-20241201-114722.jpg)
/image%2F0724814%2F20241202%2Fob_bc5dd0_img-20241201-163338.jpg)
/image%2F0724814%2F20241205%2Fob_530aaf_img-20241205-wa0000.jpg)
/image%2F0724814%2F20241205%2Fob_572cc5_img-20241205-wa0001.jpg)
/image%2F0724814%2F20241205%2Fob_f3ab9e_img-20241205-wa0002.jpg)
/image%2F0724814%2F20241128%2Fob_07cc52_1732813494618.jpg)
/image%2F0724814%2F20241128%2Fob_4e3c45_1732813494651.jpg)
/image%2F0724814%2F20241128%2Fob_5f5067_1732813494683.jpg)
/image%2F0724814%2F20241128%2Fob_0f1af0_1732813494716.jpg)
/image%2F0724814%2F20241128%2Fob_19963e_20241128-140943.jpg)
/image%2F0724814%2F20241128%2Fob_2d06c0_20241128-142202.jpg)
/image%2F0724814%2F20241128%2Fob_c31a22_20241128-142216.jpg)
/image%2F0724814%2F20241128%2Fob_77b0ff_20241128-151407-1.jpg)
/image%2F0724814%2F20241128%2Fob_3788c1_20241128-151420-1.jpg)
/image%2F0724814%2F20241128%2Fob_f858c5_20241128-151435.jpg)
/image%2F0724814%2F20241128%2Fob_536e5d_img-20241128-080501.jpg)
/image%2F0724814%2F20241128%2Fob_0c2562_img-20241128-084831.jpg)
/image%2F0724814%2F20241128%2Fob_91ac9e_img-20241128-084836.jpg)
/image%2F0724814%2F20241128%2Fob_924d9f_img-20241128-084954.jpg)
/image%2F0724814%2F20241128%2Fob_a2c89a_img-20241128-084958.jpg)
/image%2F0724814%2F20241127%2Fob_131f14_20241127-131457.jpg)
/image%2F0724814%2F20241127%2Fob_d51fe1_20241127-131629.jpg)
/image%2F0724814%2F20241127%2Fob_1f3a5b_20241127-142621.jpg)
/image%2F0724814%2F20241127%2Fob_d727d2_20241127-144908.jpg)
/image%2F0724814%2F20241127%2Fob_0e0f03_img-20241127-105957-1.jpg)
/image%2F0724814%2F20241127%2Fob_93b7df_img-20241127-112702.jpg)
/image%2F0724814%2F20241127%2Fob_fd136e_img-20241127-150521-1.jpg)
/image%2F0724814%2F20241127%2Fob_469702_img-20241127-150557-1.jpg)
/image%2F0724814%2F20241127%2Fob_9d4755_img-20241127-150628.jpg)
/image%2F0724814%2F20241126%2Fob_9bd762_20241126-141045.jpg)
/image%2F0724814%2F20241126%2Fob_4b449a_20241126-141052.jpg)
/image%2F0724814%2F20241126%2Fob_6a451d_img-20241126-wa0000.jpg)
/image%2F0724814%2F20241126%2Fob_2e0ca4_img-20241126-wa0001.jpg)
/image%2F0724814%2F20241126%2Fob_d447ab_img-20241126-wa0003.jpg)
/image%2F0724814%2F20241126%2Fob_2862ae_img-20241126-wa0004.jpg)
/image%2F0724814%2F20241126%2Fob_7f7aa3_1732555521694.jpg)
/image%2F0724814%2F20241126%2Fob_efbff9_1732555521734.jpg)
/image%2F0724814%2F20241126%2Fob_665b14_1732555521769.jpg)
/image%2F0724814%2F20241126%2Fob_0941c1_1732556765111.jpg)
/image%2F0724814%2F20241126%2Fob_204278_1732556765152.jpg)
/image%2F0724814%2F20241126%2Fob_c7695a_1732556765192.jpg)
/image%2F0724814%2F20241126%2Fob_42cb7f_img-20241125-152751.jpg)
/image%2F0724814%2F20241126%2Fob_1db444_img-20241125-152819.jpg)
/image%2F0724814%2F20241123%2Fob_f86bf3_20241122-184416.jpg)
/image%2F0724814%2F20241123%2Fob_6041fc_20241122-184431.jpg)
/image%2F0724814%2F20241123%2Fob_6e39b4_20241122-184434.jpg)
/image%2F0724814%2F20241123%2Fob_4f8a90_20241122-184822.jpg)
/image%2F0724814%2F20241123%2Fob_1158b4_20241122-184826.jpg)
/image%2F0724814%2F20241123%2Fob_caacf0_img-20241122-180303.jpg)
/image%2F0724814%2F20241123%2Fob_fbabe5_img-20241122-184202.jpg)
/image%2F0724814%2F20241123%2Fob_9d5c07_img-20241122-201859.jpg)
/image%2F0724814%2F20241123%2Fob_e8fd76_img-20241122-205314.jpg)
/image%2F0724814%2F20241123%2Fob_ffc042_img-20241122-205410.jpg)
/image%2F0724814%2F20241123%2Fob_e35bab_img-20241122-205538.jpg)
/image%2F0724814%2F20241123%2Fob_6e4c03_img-20241122-213545.jpg)